createdAt,value
2023-02-08T00:00:51.921Z,99467.78
2023-02-08T00:03:18.502Z,99445.44
2023-02-08T00:05:48.674Z,99460.03
2023-02-08T00:08:15.973Z,99463.34
2023-02-08T00:10:42.962Z,99449.31
2023-02-08T00:13:09.984Z,99451.06
2023-02-08T00:15:41.523Z,99444.50
2023-02-08T00:18:08.078Z,99452.56
2023-02-08T00:20:34.594Z,99439.22
2023-02-08T00:23:01.075Z,99450.38
2023-02-08T00:25:27.508Z,99435.16
2023-02-08T00:27:53.959Z,99443.84
2023-02-08T00:30:20.632Z,99429.66
2023-02-08T00:32:47.332Z,99434.53
2023-02-08T00:35:14.029Z,99419.88
2023-02-08T00:37:41.646Z,99426.34
2023-02-08T00:40:08.870Z,99435.03
2023-02-08T00:42:35.383Z,99431.56
2023-02-08T00:45:01.979Z,99439.47
2023-02-08T00:47:28.804Z,99432.41
2023-02-08T00:49:55.931Z,99434.09
2023-02-08T00:52:22.781Z,99422.22
2023-02-08T00:54:49.855Z,99414.09
2023-02-08T00:57:19.692Z,99431.91
2023-02-08T00:59:48.530Z,99412.72
2023-02-08T01:02:15.768Z,99423.31
2023-02-08T01:04:42.723Z,99420.09
2023-02-08T01:07:09.382Z,99407.22
2023-02-08T01:09:35.925Z,99412.44
2023-02-08T01:12:02.789Z,99417.06
2023-02-08T01:14:29.709Z,99419.50
2023-02-08T01:16:56.249Z,99409.53
2023-02-08T01:19:22.825Z,99409.06
2023-02-08T01:21:52.125Z,99402.94
2023-02-08T01:24:21.909Z,99406.47
2023-02-08T01:26:52.932Z,99409.22
2023-02-08T01:29:22.450Z,99414.94
2023-02-08T01:31:51.866Z,99412.19
2023-02-08T01:34:21.856Z,99394.03
2023-02-08T01:36:51.130Z,99402.69
2023-02-08T01:39:19.773Z,99410.28
2023-02-08T01:41:46.765Z,99423.38
2023-02-08T01:44:19.998Z,99418.81
2023-02-08T01:46:51.683Z,99400.81
2023-02-08T01:49:24.860Z,99420.63
2023-02-08T01:52:03.769Z,99422.00
2023-02-08T01:54:38.469Z,99423.59
2023-02-08T01:57:05.068Z,99412.63
2023-02-08T02:00:01.430Z,99412.22
2023-02-08T02:02:28.441Z,99417.63
2023-02-08T02:04:55.925Z,99409.94
2023-02-08T02:07:28.600Z,99411.53
2023-02-08T02:10:07.458Z,99392.63
2023-02-08T02:12:35.505Z,99412.03
2023-02-08T02:15:02.697Z,99411.47
2023-02-08T02:17:29.284Z,99397.84
2023-02-08T02:20:23.916Z,99419.91
2023-02-08T02:22:56.354Z,99413.53
2023-02-08T02:25:38.226Z,99414.59
2023-02-08T02:28:26.367Z,99409.44
2023-02-08T02:31:15.634Z,99406.06
2023-02-08T02:34:08.463Z,99403.78
2023-02-08T02:37:25.584Z,99399.81
2023-02-08T02:40:03.235Z,99398.44
2023-02-08T02:43:07.381Z,99383.00
2023-02-08T02:45:40.137Z,99397.06
2023-02-08T02:48:12.573Z,99386.13
2023-02-08T02:50:51.358Z,99395.97
2023-02-08T02:53:20.516Z,99398.81
2023-02-08T02:56:20.002Z,99401.66
2023-02-08T02:58:46.609Z,99375.19
2023-02-08T03:01:13.204Z,99397.97
2023-02-08T03:03:40.322Z,99396.41
2023-02-08T03:06:12.232Z,99399.31
2023-02-08T03:09:08.045Z,99394.97
2023-02-08T03:11:36.961Z,99392.84
2023-02-08T03:14:19.123Z,99385.84
2023-02-08T03:17:00.665Z,99377.50
2023-02-08T03:19:56.219Z,99376.06
2023-02-08T03:22:28.788Z,99376.59
2023-02-08T03:25:03.183Z,99375.44
2023-02-08T03:28:05.823Z,99365.22
2023-02-08T03:30:38.906Z,99363.22
2023-02-08T03:33:20.372Z,99352.44
2023-02-08T03:36:19.291Z,99369.16
2023-02-08T03:38:48.635Z,99374.44
2023-02-08T03:41:22.644Z,99378.00
2023-02-08T03:44:03.529Z,99379.75
2023-02-08T03:46:38.384Z,99357.50
2023-02-08T03:49:09.729Z,99376.78
2023-02-08T03:51:39.121Z,99358.25
2023-02-08T03:54:11.463Z,99382.09
2023-02-08T03:56:43.434Z,99376.19
2023-02-08T03:59:17.179Z,99372.72
2023-02-08T04:01:48.580Z,99373.28
2023-02-08T04:04:18.686Z,99376.78
2023-02-08T04:06:45.426Z,99379.75
2023-02-08T04:09:12.012Z,99384.00
2023-02-08T04:11:38.486Z,99381.38
2023-02-08T04:14:04.954Z,99362.75
2023-02-08T04:16:31.392Z,99365.53
2023-02-08T04:19:00.762Z,99367.53
2023-02-08T04:21:29.973Z,99371.75
2023-02-08T04:23:56.397Z,99368.50
2023-02-08T04:26:22.907Z,99370.22
2023-02-08T04:28:49.402Z,99369.53
2023-02-08T04:31:15.964Z,99377.50
2023-02-08T04:33:42.626Z,99382.34
2023-02-08T04:36:09.588Z,99378.19
2023-02-08T04:38:36.196Z,99373.25
2023-02-08T04:41:02.653Z,99379.88
2023-02-08T04:43:32.020Z,99383.25
2023-02-08T04:46:01.021Z,99354.53
2023-02-08T04:48:27.607Z,99379.50
2023-02-08T04:50:58.232Z,99346.91
2023-02-08T04:53:25.621Z,99354.47
2023-02-08T04:55:52.517Z,99359.97
2023-02-08T04:58:19.051Z,99347.84
2023-02-08T05:00:46.509Z,99355.59
2023-02-08T05:03:15.104Z,99358.88
2023-02-08T05:05:41.946Z,99357.84
2023-02-08T05:08:08.460Z,99359.72
2023-02-08T05:10:34.981Z,99361.06
2023-02-08T05:13:01.445Z,99356.72
2023-02-08T05:15:27.961Z,99356.59
2023-02-08T05:17:54.507Z,99333.41
2023-02-08T05:20:21.652Z,99349.03
2023-02-08T05:22:48.149Z,99342.13
2023-02-08T05:25:14.626Z,99323.50
2023-02-08T05:27:41.064Z,99333.97
2023-02-08T05:30:21.664Z,99334.06
2023-02-08T05:32:48.106Z,99281.41
2023-02-08T05:35:14.687Z,99329.63
2023-02-08T05:37:41.168Z,99325.41
2023-02-08T05:40:08.361Z,99341.41
2023-02-08T05:42:34.853Z,99332.78
2023-02-08T05:45:01.844Z,99340.56
2023-02-08T05:47:28.297Z,99336.03
2023-02-08T05:49:54.765Z,99341.03
2023-02-08T05:52:21.195Z,99344.41
2023-02-08T05:54:47.621Z,99346.22
2023-02-08T05:57:14.133Z,99343.63
2023-02-08T05:59:40.580Z,99358.00
2023-02-08T06:02:07.222Z,99347.97
2023-02-08T06:04:38.968Z,99364.63
2023-02-08T06:07:05.682Z,99365.06
2023-02-08T06:09:34.206Z,99360.97
2023-02-08T06:12:00.729Z,99369.75
2023-02-08T06:14:27.233Z,99353.47
2023-02-08T06:16:53.656Z,99354.53
2023-02-08T06:19:20.166Z,99362.09
2023-02-08T06:21:46.718Z,99355.16
2023-02-08T06:24:13.756Z,99370.13
2023-02-08T06:26:40.177Z,99371.91
2023-02-08T06:29:06.763Z,99368.16
2023-02-08T06:31:33.214Z,99355.03
2023-02-08T06:33:59.722Z,99366.81
2023-02-08T06:36:26.417Z,99346.88
2023-02-08T06:38:53.097Z,99346.66
2023-02-08T06:41:19.795Z,99367.56
2023-02-08T06:43:46.267Z,99365.69
2023-02-08T06:46:12.839Z,99361.44
2023-02-08T06:48:39.310Z,99353.81
2023-02-08T06:51:05.752Z,99344.47
2023-02-08T06:53:32.312Z,99342.63
2023-02-08T06:55:58.713Z,99357.66
2023-02-08T06:58:25.303Z,99346.16
2023-02-08T07:00:51.909Z,99339.72
2023-02-08T07:03:18.436Z,99354.56
2023-02-08T07:05:58.691Z,99337.59
2023-02-08T07:08:30.268Z,99354.47
2023-02-08T07:10:56.714Z,99345.56
2023-02-08T07:13:23.520Z,99365.97
2023-02-08T07:15:49.998Z,99359.59
2023-02-08T07:18:16.691Z,99344.38
2023-02-08T07:20:43.104Z,99362.97
2023-02-08T07:23:09.559Z,99365.16
2023-02-08T07:25:37.198Z,99354.53
2023-02-08T07:28:03.884Z,99358.75
2023-02-08T07:30:30.609Z,99360.94
2023-02-08T07:32:57.117Z,99336.72
2023-02-08T07:35:23.910Z,99342.56
2023-02-08T07:37:50.763Z,99321.38
2023-02-08T07:40:17.508Z,99332.44
2023-02-08T07:42:43.957Z,99324.88
2023-02-08T07:45:10.384Z,99337.44
2023-02-08T07:47:38.157Z,99333.88
2023-02-08T07:50:04.985Z,99347.13
2023-02-08T07:52:35.253Z,99333.16
2023-02-08T07:55:01.732Z,99326.50
2023-02-08T07:57:28.168Z,99326.84
2023-02-08T07:59:54.589Z,99312.22
2023-02-08T08:02:21.156Z,99311.38
2023-02-08T08:04:47.664Z,99314.78
2023-02-08T08:07:14.169Z,99314.47
2023-02-08T08:09:40.596Z,99317.06
2023-02-08T08:12:10.213Z,99322.72
2023-02-08T08:14:40.563Z,99313.84
2023-02-08T08:17:10.033Z,99316.72
2023-02-08T08:19:39.973Z,99294.91
2023-02-08T08:22:10.706Z,99315.72
2023-02-08T08:24:40.188Z,99314.63
2023-02-08T08:27:10.568Z,99310.25
2023-02-08T08:29:40.222Z,99321.47
2023-02-08T08:32:11.928Z,99309.44
2023-02-08T08:34:42.282Z,99310.78
2023-02-08T08:37:11.910Z,99334.69
2023-02-08T08:39:42.637Z,99338.59
2023-02-08T08:42:09.544Z,99314.19
2023-02-08T08:44:37.278Z,99346.28
2023-02-08T08:47:05.238Z,99335.31
2023-02-08T08:49:32.012Z,99307.03
2023-02-08T08:51:58.892Z,99335.91
2023-02-08T08:54:25.491Z,99321.63
2023-02-08T08:56:52.291Z,99344.72
2023-02-08T08:59:19.153Z,99346.78
2023-02-08T09:01:45.919Z,99326.31
2023-02-08T09:04:12.951Z,99345.13
2023-02-08T09:06:42.512Z,99349.81
2023-02-08T09:09:13.643Z,99363.91
2023-02-08T09:11:40.119Z,99354.94
2023-02-08T09:14:12.556Z,99361.03
2023-02-08T09:16:47.662Z,99338.59
2023-02-08T09:19:15.851Z,99361.50
2023-02-08T09:21:43.257Z,99367.25
2023-02-08T09:24:10.269Z,99368.22
2023-02-08T09:26:39.942Z,99366.25
2023-02-08T09:29:09.829Z,99354.50
2023-02-08T09:31:39.491Z,99354.41
2023-02-08T09:34:12.453Z,99362.28
2023-02-08T09:36:41.965Z,99312.00
2023-02-08T09:39:14.743Z,99341.66
2023-02-08T09:42:15.366Z,99361.13
2023-02-08T09:44:55.981Z,99362.16
2023-02-08T09:47:37.656Z,99363.47
2023-02-08T09:50:13.664Z,99366.34
2023-02-08T09:53:03.076Z,99360.63
2023-02-08T09:55:51.748Z,99375.06
2023-02-08T09:58:34.297Z,99361.09
2023-02-08T10:01:04.068Z,99359.47
2023-02-08T10:03:31.547Z,99368.34
2023-02-08T10:05:58.424Z,99359.09
2023-02-08T10:08:34.918Z,99351.72
2023-02-08T10:11:28.547Z,99357.34
2023-02-08T10:14:02.602Z,99348.88
2023-02-08T10:16:52.422Z,99339.75
2023-02-08T10:19:49.698Z,99352.06
2023-02-08T10:22:43.632Z,99352.06
2023-02-08T10:25:13.074Z,99350.56
2023-02-08T10:27:57.902Z,99336.56
2023-02-08T10:30:38.769Z,99342.59
2023-02-08T10:33:12.332Z,99347.88
2023-02-08T10:35:44.954Z,99333.78
2023-02-08T10:38:43.963Z,99339.09
2023-02-08T10:41:18.481Z,99336.94
2023-02-08T10:43:51.894Z,99325.13
2023-02-08T10:46:35.673Z,99329.28
2023-02-08T10:49:20.444Z,99329.72
2023-02-08T10:51:47.630Z,99323.03
2023-02-08T10:54:15.442Z,99309.47
2023-02-08T10:57:19.972Z,99312.41
2023-02-08T10:59:49.370Z,99319.91
2023-02-08T11:02:23.618Z,99319.63
2023-02-08T11:05:10.273Z,99311.41
2023-02-08T11:07:37.193Z,99313.22
2023-02-08T11:10:16.690Z,99313.25
2023-02-08T11:12:54.679Z,99301.41
2023-02-08T11:15:25.942Z,99289.16
2023-02-08T11:17:56.710Z,99299.69
2023-02-08T11:20:31.530Z,99286.25
2023-02-08T11:22:59.437Z,99270.91
2023-02-08T11:25:42.516Z,99265.31
2023-02-08T11:28:24.301Z,99277.38
2023-02-08T11:31:19.603Z,99259.97
2023-02-08T11:34:11.563Z,99269.63
2023-02-08T11:36:48.347Z,99260.97
2023-02-08T11:39:22.258Z,99245.97
2023-02-08T11:41:51.156Z,99250.16
2023-02-08T11:44:24.426Z,99240.00
2023-02-08T11:46:52.252Z,99224.28
2023-02-08T11:49:28.690Z,99225.81
2023-02-08T11:51:55.637Z,99210.13
2023-02-08T11:55:17.612Z,99242.44
2023-02-08T11:57:59.137Z,99228.03
2023-02-08T12:00:31.730Z,99211.03
2023-02-08T12:03:05.581Z,99218.28
2023-02-08T12:05:41.828Z,99202.63
2023-02-08T12:08:50.390Z,99204.38
2023-02-08T12:11:41.072Z,99205.69
2023-02-08T12:14:25.926Z,99202.88
2023-02-08T12:17:04.772Z,99197.69
2023-02-08T12:20:10.796Z,99185.38
2023-02-08T12:22:42.309Z,99194.25
2023-02-08T12:25:26.699Z,99194.09
2023-02-08T12:28:03.297Z,99190.50
2023-02-08T12:30:42.037Z,99192.97
2023-02-08T12:33:30.773Z,99191.91
2023-02-08T12:36:18.432Z,99184.44
2023-02-08T12:39:31.499Z,99177.75
2023-02-08T12:42:16.153Z,99169.72
2023-02-08T12:44:42.567Z,99166.28
2023-02-08T12:47:58.187Z,99166.31
2023-02-08T12:51:05.522Z,99156.97
2023-02-08T12:53:38.705Z,99156.97
2023-02-08T12:56:16.352Z,99144.81
2023-02-08T12:58:49.795Z,99146.47
2023-02-08T13:01:26.543Z,99158.34
2023-02-08T13:03:57.793Z,99117.56
2023-02-08T13:06:33.547Z,99130.06
2023-02-08T13:09:13.665Z,99133.41
2023-02-08T13:11:57.193Z,99126.53
2023-02-08T13:15:02.921Z,99134.78
2023-02-08T13:17:51.659Z,99117.72
2023-02-08T13:20:33.510Z,99135.56
2023-02-08T13:23:03.905Z,99123.88
2023-02-08T13:25:36.066Z,99143.59
2023-02-08T13:28:10.971Z,99122.06
2023-02-08T13:30:40.200Z,99117.91
2023-02-08T13:33:29.583Z,99123.94
2023-02-08T13:35:57.954Z,99128.44
2023-02-08T13:38:34.801Z,99125.75
2023-02-08T13:41:09.358Z,99123.81
2023-02-08T13:43:40.965Z,99131.31
2023-02-08T13:46:10.511Z,99115.66
2023-02-08T13:48:48.745Z,99115.28
2023-02-08T13:51:33.574Z,99123.25
2023-02-08T13:54:00.319Z,99133.31
2023-02-08T13:56:45.208Z,99125.00
2023-02-08T13:59:30.431Z,99125.16
2023-02-08T14:02:22.305Z,99120.34
2023-02-08T14:04:54.514Z,99123.13
2023-02-08T14:07:47.265Z,99122.72
2023-02-08T14:10:37.486Z,99121.09
2023-02-08T14:13:17.990Z,99125.50
2023-02-08T14:15:45.091Z,99099.00
2023-02-08T14:18:28.814Z,99118.16
2023-02-08T14:21:05.301Z,99116.00
2023-02-08T14:23:34.243Z,99113.13
2023-02-08T14:26:07.751Z,99108.28
2023-02-08T14:28:44.101Z,99106.00
2023-02-08T14:31:12.331Z,99098.13
2023-02-08T14:33:54.466Z,99098.94
2023-02-08T14:36:28.724Z,99109.97
2023-02-08T14:39:29.096Z,99108.34
2023-02-08T14:42:05.489Z,99109.00
2023-02-08T14:44:37.996Z,99111.16
2023-02-08T14:47:38.477Z,99117.34
2023-02-08T14:50:15.792Z,99108.34
2023-02-08T14:52:52.908Z,99112.63
2023-02-08T14:55:27.464Z,99107.94
2023-02-08T14:57:55.978Z,99113.81
2023-02-08T15:00:28.592Z,99113.81
2023-02-08T15:02:56.716Z,99108.72
2023-02-08T15:05:28.980Z,99107.53
2023-02-08T15:07:57.948Z,99113.34
2023-02-08T15:10:26.751Z,99075.97
2023-02-08T15:12:57.769Z,99094.91
2023-02-08T15:15:37.174Z,99084.66
2023-02-08T15:18:07.167Z,99083.22
2023-02-08T15:20:35.776Z,99052.72
2023-02-08T15:23:05.942Z,99098.91
2023-02-08T15:25:35.588Z,99091.47
2023-02-08T15:28:16.615Z,99116.97
2023-02-08T15:30:44.032Z,99109.59
2023-02-08T15:33:18.020Z,99116.50
2023-02-08T15:35:45.959Z,99117.13
2023-02-08T15:38:21.514Z,99081.28
2023-02-08T15:41:07.537Z,99113.03
2023-02-08T15:43:35.428Z,99084.09
2023-02-08T15:46:05.937Z,99112.78
2023-02-08T15:48:33.573Z,99123.00
2023-02-08T15:51:01.210Z,99128.59
2023-02-08T15:53:28.348Z,99125.47
2023-02-08T15:55:59.245Z,99127.84
2023-02-08T15:58:54.948Z,99126.69
2023-02-08T16:01:22.383Z,99137.41
2023-02-08T16:03:58.182Z,99131.56
2023-02-08T16:06:37.636Z,99106.72
2023-02-08T16:09:04.501Z,99136.84
2023-02-08T16:11:34.395Z,99122.97
2023-02-08T16:14:03.452Z,99141.88
2023-02-08T16:16:35.840Z,99146.63
2023-02-08T16:19:06.547Z,99146.22
2023-02-08T16:21:39.884Z,99153.91
2023-02-08T16:24:21.400Z,99159.06
2023-02-08T16:27:07.351Z,99160.50
2023-02-08T16:29:38.255Z,99124.75
2023-02-08T16:32:20.883Z,99159.94
2023-02-08T16:34:47.604Z,99150.88
2023-02-08T16:37:33.354Z,99163.50
2023-02-08T16:40:48.843Z,99167.59
2023-02-08T16:43:26.043Z,99166.63
2023-02-08T16:46:17.449Z,99173.22
2023-02-08T16:48:48.445Z,99169.72
2023-02-08T16:51:21.943Z,99168.38
2023-02-08T16:53:55.058Z,99143.94
2023-02-08T16:56:23.129Z,99153.09
2023-02-08T16:58:49.652Z,99183.34
2023-02-08T17:01:16.988Z,99179.28
2023-02-08T17:03:46.224Z,99116.97
2023-02-08T17:06:38.366Z,99183.97
2023-02-08T17:09:06.655Z,99174.56
2023-02-08T17:11:35.589Z,99173.84
2023-02-08T17:14:02.724Z,99191.09
2023-02-08T17:16:31.042Z,99181.97
2023-02-08T17:18:58.864Z,99195.97
2023-02-08T17:21:27.318Z,99187.88
2023-02-08T17:23:53.836Z,99186.22
2023-02-08T17:26:27.493Z,99189.88
2023-02-08T17:28:55.955Z,99189.25
2023-02-08T17:31:23.427Z,99149.00
2023-02-08T17:33:50.215Z,99143.13
2023-02-08T17:36:17.404Z,99188.00
2023-02-08T17:38:46.309Z,99182.41
2023-02-08T17:41:18.693Z,99154.03
2023-02-08T17:43:45.449Z,99176.09
2023-02-08T17:46:17.617Z,99190.94
2023-02-08T17:48:45.708Z,99187.78
2023-02-08T17:51:20.840Z,99187.31
2023-02-08T17:53:47.624Z,99180.25
2023-02-08T17:56:25.079Z,99182.44
2023-02-08T17:58:53.919Z,99195.84
2023-02-08T18:01:26.390Z,99185.13
2023-02-08T18:03:53.278Z,99184.47
2023-02-08T18:06:20.515Z,99188.41
2023-02-08T18:08:47.114Z,99197.50
2023-02-08T18:11:19.741Z,99189.53
2023-02-08T18:13:50.935Z,99175.06
2023-02-08T18:16:23.820Z,99172.56
2023-02-08T18:18:50.415Z,99192.41
2023-02-08T18:21:22.108Z,99191.63
2023-02-08T18:23:49.989Z,99185.88
2023-02-08T18:26:19.968Z,99188.28
2023-02-08T18:28:47.180Z,99178.19
2023-02-08T18:31:17.044Z,99159.47
2023-02-08T18:33:44.051Z,99155.75
2023-02-08T18:36:14.894Z,99187.25
2023-02-08T18:38:47.978Z,99155.38
2023-02-08T18:41:24.206Z,99184.63
2023-02-08T18:43:51.285Z,99185.88
2023-02-08T18:46:20.571Z,99189.88
2023-02-08T18:48:48.598Z,99145.00
2023-02-08T18:51:19.535Z,99195.75
2023-02-08T18:53:48.803Z,99198.56
2023-02-08T18:56:15.454Z,99204.38
2023-02-08T18:58:45.770Z,99172.94
2023-02-08T19:01:22.506Z,99190.31
2023-02-08T19:03:49.410Z,99173.22
2023-02-08T19:06:21.004Z,99207.81
2023-02-08T19:08:47.586Z,99181.69
2023-02-08T19:11:17.481Z,99201.78
2023-02-08T19:13:44.704Z,99202.38
2023-02-08T19:16:15.410Z,99189.13
2023-02-08T19:18:45.551Z,99200.19
2023-02-08T19:21:17.226Z,99204.56
2023-02-08T19:23:54.911Z,99186.47
2023-02-08T19:26:26.995Z,99199.06
2023-02-08T19:28:55.036Z,99195.06
2023-02-08T19:31:25.861Z,99203.63
2023-02-08T19:33:58.709Z,99139.72
2023-02-08T19:36:35.209Z,99199.88
2023-02-08T19:39:06.933Z,99198.47
2023-02-08T19:41:36.670Z,99204.78
2023-02-08T19:44:08.283Z,99197.28
2023-02-08T19:46:38.647Z,99176.56
2023-02-08T19:49:06.568Z,99163.41
2023-02-08T19:51:35.324Z,99181.13
2023-02-08T19:54:03.170Z,99136.78
2023-02-08T19:56:36.562Z,99192.66
2023-02-08T19:59:05.560Z,99200.34
2023-02-08T20:01:34.410Z,99139.56
2023-02-08T20:04:01.793Z,99194.84
2023-02-08T20:06:32.992Z,99216.16
2023-02-08T20:09:00.586Z,99202.91
2023-02-08T20:11:38.717Z,99222.66
2023-02-08T20:14:14.762Z,99215.47
2023-02-08T20:16:41.638Z,99221.31
2023-02-08T20:19:11.247Z,99186.25
2023-02-08T20:21:40.246Z,99230.94
2023-02-08T20:24:11.522Z,99234.03
2023-02-08T20:26:44.810Z,99237.56
2023-02-08T20:29:14.446Z,99160.81
2023-02-08T20:31:47.914Z,99242.00
2023-02-08T20:34:18.779Z,99242.13
2023-02-08T20:37:06.713Z,99234.16
2023-02-08T20:39:36.280Z,99231.53
2023-02-08T20:42:02.970Z,99226.31
2023-02-08T20:44:29.617Z,99251.44
2023-02-08T20:46:56.089Z,99236.50
2023-02-08T20:49:25.565Z,99249.63
2023-02-08T20:51:53.833Z,99253.53
2023-02-08T20:54:22.874Z,99247.41
2023-02-08T20:56:49.352Z,99249.31
2023-02-08T20:59:18.726Z,99239.78
2023-02-08T21:01:49.006Z,99222.22
2023-02-08T21:04:20.202Z,99240.31
2023-02-08T21:06:46.731Z,99256.75
2023-02-08T21:09:17.279Z,99219.91
2023-02-08T21:11:47.391Z,99231.66
2023-02-08T21:14:21.278Z,99250.59
2023-02-08T21:16:51.048Z,99259.75
2023-02-08T21:19:20.471Z,99256.44
2023-02-08T21:21:51.477Z,99256.59
2023-02-08T21:24:18.211Z,99231.34
2023-02-08T21:26:47.541Z,99265.00
2023-02-08T21:29:18.032Z,99258.47
2023-02-08T21:31:51.649Z,99260.38
2023-02-08T21:34:19.615Z,99268.28
2023-02-08T21:36:46.144Z,99238.50
2023-02-08T21:39:17.809Z,99249.63
2023-02-08T21:41:48.274Z,99281.78
2023-02-08T21:44:15.658Z,99251.56
2023-02-08T21:46:45.837Z,99257.81
2023-02-08T21:49:31.138Z,99272.00
2023-02-08T21:52:16.277Z,99268.94
2023-02-08T21:54:45.368Z,99260.25
2023-02-08T21:57:26.722Z,99275.16
2023-02-08T21:59:57.118Z,99279.00
2023-02-08T22:02:27.744Z,99274.22
2023-02-08T22:04:57.260Z,99288.06
2023-02-08T22:07:25.605Z,99252.34
2023-02-08T22:09:52.660Z,99273.16
2023-02-08T22:12:21.666Z,99278.47
2023-02-08T22:14:49.493Z,99279.00
2023-02-08T22:17:19.100Z,99266.03
2023-02-08T22:19:48.672Z,99259.09
2023-02-08T22:22:17.946Z,99268.41
2023-02-08T22:24:46.743Z,99270.00
2023-02-08T22:27:13.620Z,99278.38
2023-02-08T22:29:40.558Z,99270.31
2023-02-08T22:32:10.008Z,99280.75
2023-02-08T22:34:40.253Z,99283.56
2023-02-08T22:37:06.998Z,99281.03
2023-02-08T22:39:36.055Z,99280.22
2023-02-08T22:42:08.314Z,99257.84
2023-02-08T22:44:36.491Z,99267.72
2023-02-08T22:47:04.862Z,99273.78
2023-02-08T22:49:31.411Z,99273.44
2023-02-08T22:51:58.340Z,99276.38
2023-02-08T22:54:24.913Z,99287.88
2023-02-08T22:56:51.539Z,99266.13
2023-02-08T22:59:21.125Z,99229.56
2023-02-08T23:01:50.773Z,99280.09
2023-02-08T23:04:20.349Z,99280.66
2023-02-08T23:06:48.824Z,99288.13
2023-02-08T23:09:15.278Z,99275.81
2023-02-08T23:11:41.767Z,99267.06
2023-02-08T23:14:08.644Z,99278.53
2023-02-08T23:16:35.703Z,99288.94
2023-02-08T23:19:05.071Z,99289.31
2023-02-08T23:21:32.067Z,99260.19
2023-02-08T23:23:58.538Z,99278.47
2023-02-08T23:26:25.928Z,99283.03
2023-02-08T23:28:54.017Z,99266.50
2023-02-08T23:31:23.501Z,99289.00
2023-02-08T23:33:53.305Z,99281.78
2023-02-08T23:36:23.640Z,99298.78
2023-02-08T23:38:53.753Z,99289.59
2023-02-08T23:41:23.953Z,99269.75
2023-02-08T23:43:53.493Z,99280.78
2023-02-08T23:46:25.831Z,99273.38
2023-02-08T23:48:52.707Z,99271.34
2023-02-08T23:51:22.475Z,99258.75
2023-02-08T23:53:54.121Z,99291.16
2023-02-08T23:56:26.188Z,99290.44
2023-02-08T23:58:55.025Z,99300.50
